sensor_id;sensor_type;location;lat;lon;timestamp;P1;durP1;ratioP1;P2;durP2;ratioP2
71395;SDS011;59888;55.814;37.132;2023-04-01T00:01:33;12.80;;;6.18;;
71395;SDS011;59888;55.814;37.132;2023-04-01T00:03:59;13.05;;;6.63;;
71395;SDS011;59888;55.814;37.132;2023-04-01T00:06:27;12.20;;;6.78;;
71395;SDS011;59888;55.814;37.132;2023-04-01T00:08:53;15.07;;;6.93;;
71395;SDS011;59888;55.814;37.132;2023-04-01T00:11:19;14.05;;;7.07;;
71395;SDS011;59888;55.814;37.132;2023-04-01T00:13:46;14.55;;;7.10;;
71395;SDS011;59888;55.814;37.132;2023-04-01T00:16:13;13.27;;;6.25;;
71395;SDS011;59888;55.814;37.132;2023-04-01T00:18:40;11.82;;;6.50;;
71395;SDS011;59888;55.814;37.132;2023-04-01T00:21:06;12.18;;;6.43;;
71395;SDS011;59888;55.814;37.132;2023-04-01T00:23:32;12.75;;;7.53;;
71395;SDS011;59888;55.814;37.132;2023-04-01T00:26:02;17.10;;;6.72;;
71395;SDS011;59888;55.814;37.132;2023-04-01T00:28:28;12.57;;;7.32;;
71395;SDS011;59888;55.814;37.132;2023-04-01T00:30:54;13.57;;;7.00;;
71395;SDS011;59888;55.814;37.132;2023-04-01T00:33:20;15.00;;;7.50;;
71395;SDS011;59888;55.814;37.132;2023-04-01T00:35:46;14.23;;;6.80;;
71395;SDS011;59888;55.814;37.132;2023-04-01T00:38:12;15.77;;;7.75;;
71395;SDS011;59888;55.814;37.132;2023-04-01T00:40:39;13.40;;;7.22;;
71395;SDS011;59888;55.814;37.132;2023-04-01T00:43:14;16.13;;;7.68;;
71395;SDS011;59888;55.814;37.132;2023-04-01T00:45:45;15.55;;;7.47;;
71395;SDS011;59888;55.814;37.132;2023-04-01T00:48:15;15.57;;;7.32;;
71395;SDS011;59888;55.814;37.132;2023-04-01T00:50:48;13.80;;;7.53;;
71395;SDS011;59888;55.814;37.132;2023-04-01T00:53:24;16.48;;;7.55;;
71395;SDS011;59888;55.814;37.132;2023-04-01T00:55:54;14.63;;;7.50;;
71395;SDS011;59888;55.814;37.132;2023-04-01T00:58:28;16.65;;;7.95;;
71395;SDS011;59888;55.814;37.132;2023-04-01T01:00:58;16.98;;;8.05;;
71395;SDS011;59888;55.814;37.132;2023-04-01T01:03:25;17.23;;;7.70;;
71395;SDS011;59888;55.814;37.132;2023-04-01T01:06:37;14.00;;;7.47;;
71395;SDS011;59888;55.814;37.132;2023-04-01T01:09:06;12.52;;;6.80;;
71395;SDS011;59888;55.814;37.132;2023-04-01T01:17:44;13.93;;;7.03;;
71395;SDS011;59888;55.814;37.132;2023-04-01T01:20:39;13.88;;;6.72;;
71395;SDS011;59888;55.814;37.132;2023-04-01T01:37:17;13.85;;;6.63;;
71395;SDS011;59888;55.814;37.132;2023-04-01T01:39:48;14.48;;;6.85;;
71395;SDS011;59888;55.814;37.132;2023-04-01T01:45:02;14.95;;;7.40;;
71395;SDS011;59888;55.814;37.132;2023-04-01T01:47:31;13.30;;;6.18;;
71395;SDS011;59888;55.814;37.132;2023-04-01T01:49:59;14.43;;;6.22;;
71395;SDS011;59888;55.814;37.132;2023-04-01T01:52:27;11.85;;;6.57;;
71395;SDS011;59888;55.814;37.132;2023-04-01T01:54:57;13.73;;;6.78;;
71395;SDS011;59888;55.814;37.132;2023-04-01T01:57:31;13.48;;;6.85;;
71395;SDS011;59888;55.814;37.132;2023-04-01T02:00:10;14.68;;;6.75;;
71395;SDS011;59888;55.814;37.132;2023-04-01T02:02:44;11.60;;;6.40;;
71395;SDS011;59888;55.814;37.132;2023-04-01T02:05:14;12.98;;;6.60;;
71395;SDS011;59888;55.814;37.132;2023-04-01T02:10:53;14.65;;;6.20;;
71395;SDS011;59888;55.814;37.132;2023-04-01T02:13:31;13.80;;;6.72;;
71395;SDS011;59888;55.814;37.132;2023-04-01T02:16:04;13.07;;;7.40;;
71395;SDS011;59888;55.814;37.132;2023-04-01T02:18:36;14.70;;;7.60;;
71395;SDS011;59888;55.814;37.132;2023-04-01T02:21:04;13.77;;;7.50;;
71395;SDS011;59888;55.814;37.132;2023-04-01T02:23:35;14.35;;;8.05;;
71395;SDS011;59888;55.814;37.132;2023-04-01T02:26:04;16.13;;;7.60;;
71395;SDS011;59888;55.814;37.132;2023-04-01T02:28:34;17.85;;;7.85;;
71395;SDS011;59888;55.814;37.132;2023-04-01T02:31:04;15.68;;;7.55;;
71395;SDS011;59888;55.814;37.132;2023-04-01T02:33:30;18.20;;;7.40;;
71395;SDS011;59888;55.814;37.132;2023-04-01T02:35:57;15.90;;;7.90;;
71395;SDS011;59888;55.814;37.132;2023-04-01T02:38:23;15.13;;;7.68;;
71395;SDS011;59888;55.814;37.132;2023-04-01T02:40:50;15.88;;;8.25;;
71395;SDS011;59888;55.814;37.132;2023-04-01T02:43:21;15.27;;;7.20;;
71395;SDS011;59888;55.814;37.132;2023-04-01T02:45:47;18.30;;;7.35;;
71395;SDS011;59888;55.814;37.132;2023-04-01T02:48:13;17.58;;;7.88;;
71395;SDS011;59888;55.814;37.132;2023-04-01T02:50:39;15.40;;;8.18;;
71395;SDS011;59888;55.814;37.132;2023-04-01T02:53:05;15.10;;;7.78;;
71395;SDS011;59888;55.814;37.132;2023-04-01T02:55:32;14.52;;;7.40;;
71395;SDS011;59888;55.814;37.132;2023-04-01T02:57:58;14.73;;;7.40;;
71395;SDS011;59888;55.814;37.132;2023-04-01T03:00:26;16.00;;;7.43;;
71395;SDS011;59888;55.814;37.132;2023-04-01T03:02:52;15.90;;;7.43;;
71395;SDS011;59888;55.814;37.132;2023-04-01T03:05:18;15.85;;;8.02;;
71395;SDS011;59888;55.814;37.132;2023-04-01T03:07:45;17.33;;;7.75;;
71395;SDS011;59888;55.814;37.132;2023-04-01T03:10:12;16.00;;;7.70;;
71395;SDS011;59888;55.814;37.132;2023-04-01T03:12:38;18.38;;;8.55;;
71395;SDS011;59888;55.814;37.132;2023-04-01T03:15:04;19.95;;;8.80;;
71395;SDS011;59888;55.814;37.132;2023-04-01T03:17:31;18.73;;;8.95;;
71395;SDS011;59888;55.814;37.132;2023-04-01T03:19:56;23.15;;;8.98;;
71395;SDS011;59888;55.814;37.132;2023-04-01T03:22:23;18.52;;;8.95;;
71395;SDS011;59888;55.814;37.132;2023-04-01T03:24:48;19.45;;;8.80;;
71395;SDS011;59888;55.814;37.132;2023-04-01T03:27:15;17.98;;;8.52;;
71395;SDS011;59888;55.814;37.132;2023-04-01T03:29:41;21.23;;;8.90;;
71395;SDS011;59888;55.814;37.132;2023-04-01T03:32:07;17.23;;;8.50;;
71395;SDS011;59888;55.814;37.132;2023-04-01T03:34:33;18.52;;;8.88;;
71395;SDS011;59888;55.814;37.132;2023-04-01T03:36:59;19.70;;;9.73;;
71395;SDS011;59888;55.814;37.132;2023-04-01T03:39:25;18.23;;;8.48;;
71395;SDS011;59888;55.814;37.132;2023-04-01T03:41:51;21.48;;;9.85;;
71395;SDS011;59888;55.814;37.132;2023-04-01T03:44:18;19.48;;;9.05;;
71395;SDS011;59888;55.814;37.132;2023-04-01T03:46:48;19.95;;;8.90;;
71395;SDS011;59888;55.814;37.132;2023-04-01T03:49:14;20.08;;;8.95;;
71395;SDS011;59888;55.814;37.132;2023-04-01T03:51:40;25.85;;;10.10;;
71395;SDS011;59888;55.814;37.132;2023-04-01T03:54:08;22.85;;;9.60;;
71395;SDS011;59888;55.814;37.132;2023-04-01T03:56:35;23.13;;;10.23;;
71395;SDS011;59888;55.814;37.132;2023-04-01T03:59:02;24.88;;;9.50;;
71395;SDS011;59888;55.814;37.132;2023-04-01T04:01:30;24.33;;;10.05;;
71395;SDS011;59888;55.814;37.132;2023-04-01T04:03:56;21.70;;;9.10;;
71395;SDS011;59888;55.814;37.132;2023-04-01T04:06:23;22.10;;;9.20;;
71395;SDS011;59888;55.814;37.132;2023-04-01T04:08:53;21.60;;;8.93;;
71395;SDS011;59888;55.814;37.132;2023-04-01T04:11:20;18.90;;;8.55;;
71395;SDS011;59888;55.814;37.132;2023-04-01T04:13:49;18.75;;;8.35;;
71395;SDS011;59888;55.814;37.132;2023-04-01T04:16:15;21.25;;;8.88;;
71395;SDS011;59888;55.814;37.132;2023-04-01T04:18:46;22.55;;;8.93;;
71395;SDS011;59888;55.814;37.132;2023-04-01T04:21:12;21.83;;;8.73;;
71395;SDS011;59888;55.814;37.132;2023-04-01T04:23:40;24.17;;;8.88;;
71395;SDS011;59888;55.814;37.132;2023-04-01T04:26:07;22.67;;;8.63;;
71395;SDS011;59888;55.814;37.132;2023-04-01T04:28:36;19.70;;;8.40;;
71395;SDS011;59888;55.814;37.132;2023-04-01T04:31:02;19.65;;;8.60;;
71395;SDS011;59888;55.814;37.132;2023-04-01T04:33:33;20.20;;;8.93;;
71395;SDS011;59888;55.814;37.132;2023-04-01T04:35:59;20.75;;;9.07;;
71395;SDS011;59888;55.814;37.132;2023-04-01T04:38:27;19.73;;;8.38;;
71395;SDS011;59888;55.814;37.132;2023-04-01T04:40:53;20.80;;;8.63;;
71395;SDS011;59888;55.814;37.132;2023-04-01T04:43:20;18.15;;;7.68;;
71395;SDS011;59888;55.814;37.132;2023-04-01T04:45:46;19.10;;;8.30;;
71395;SDS011;59888;55.814;37.132;2023-04-01T04:48:15;17.52;;;7.78;;
71395;SDS011;59888;55.814;37.132;2023-04-01T04:50:45;23.40;;;10.00;;
71395;SDS011;59888;55.814;37.132;2023-04-01T04:53:16;23.95;;;9.10;;
71395;SDS011;59888;55.814;37.132;2023-04-01T04:55:47;23.40;;;9.10;;
71395;SDS011;59888;55.814;37.132;2023-04-01T04:58:26;22.00;;;7.95;;
71395;SDS011;59888;55.814;37.132;2023-04-01T05:00:53;21.42;;;8.30;;
71395;SDS011;59888;55.814;37.132;2023-04-01T05:03:24;22.80;;;9.07;;
71395;SDS011;59888;55.814;37.132;2023-04-01T05:05:51;23.83;;;8.50;;
71395;SDS011;59888;55.814;37.132;2023-04-01T05:08:18;22.58;;;7.85;;
71395;SDS011;59888;55.814;37.132;2023-04-01T05:10:46;21.35;;;8.07;;
71395;SDS011;59888;55.814;37.132;2023-04-01T05:13:12;18.70;;;8.38;;
71395;SDS011;59888;55.814;37.132;2023-04-01T05:15:39;19.23;;;8.10;;
71395;SDS011;59888;55.814;37.132;2023-04-01T05:18:05;19.75;;;7.53;;
71395;SDS011;59888;55.814;37.132;2023-04-01T05:20:31;24.20;;;9.60;;
71395;SDS011;59888;55.814;37.132;2023-04-01T05:22:57;21.10;;;8.05;;
71395;SDS011;59888;55.814;37.132;2023-04-01T05:25:24;18.83;;;8.00;;
71395;SDS011;59888;55.814;37.132;2023-04-01T05:27:50;20.90;;;8.48;;
71395;SDS011;59888;55.814;37.132;2023-04-01T05:30:17;20.50;;;8.00;;
71395;SDS011;59888;55.814;37.132;2023-04-01T05:32:56;21.48;;;8.20;;
71395;SDS011;59888;55.814;37.132;2023-04-01T05:35:23;19.50;;;8.13;;
71395;SDS011;59888;55.814;37.132;2023-04-01T05:37:49;20.83;;;8.35;;
71395;SDS011;59888;55.814;37.132;2023-04-01T05:40:16;19.85;;;7.68;;
71395;SDS011;59888;55.814;37.132;2023-04-01T05:42:42;20.50;;;8.93;;
71395;SDS011;59888;55.814;37.132;2023-04-01T05:45:08;20.05;;;8.02;;
71395;SDS011;59888;55.814;37.132;2023-04-01T05:47:52;24.98;;;9.48;;
71395;SDS011;59888;55.814;37.132;2023-04-01T05:50:19;23.23;;;8.95;;
71395;SDS011;59888;55.814;37.132;2023-04-01T05:52:45;23.20;;;8.95;;
71395;SDS011;59888;55.814;37.132;2023-04-01T05:55:11;20.77;;;8.63;;
71395;SDS011;59888;55.814;37.132;2023-04-01T05:57:37;24.42;;;9.50;;
71395;SDS011;59888;55.814;37.132;2023-04-01T06:00:04;24.05;;;9.20;;
71395;SDS011;59888;55.814;37.132;2023-04-01T06:02:38;22.05;;;9.35;;
71395;SDS011;59888;55.814;37.132;2023-04-01T06:05:13;22.23;;;9.10;;
71395;SDS011;59888;55.814;37.132;2023-04-01T06:07:43;21.58;;;9.65;;
71395;SDS011;59888;55.814;37.132;2023-04-01T06:10:16;22.77;;;8.80;;
71395;SDS011;59888;55.814;37.132;2023-04-01T06:12:50;26.75;;;9.88;;
71395;SDS011;59888;55.814;37.132;2023-04-01T06:15:40;19.70;;;9.07;;
71395;SDS011;59888;55.814;37.132;2023-04-01T06:18:31;23.40;;;9.88;;
71395;SDS011;59888;55.814;37.132;2023-04-01T06:21:30;22.20;;;9.48;;
71395;SDS011;59888;55.814;37.132;2023-04-01T06:24:21;20.08;;;9.02;;
71395;SDS011;59888;55.814;37.132;2023-04-01T06:27:07;22.63;;;8.70;;
71395;SDS011;59888;55.814;37.132;2023-04-01T06:41:26;20.85;;;9.30;;
71395;SDS011;59888;55.814;37.132;2023-04-01T06:47:23;20.23;;;8.48;;
71395;SDS011;59888;55.814;37.132;2023-04-01T06:55:48;18.92;;;9.13;;
71395;SDS011;59888;55.814;37.132;2023-04-01T06:58:33;18.60;;;8.20;;
71395;SDS011;59888;55.814;37.132;2023-04-01T07:01:26;18.15;;;7.95;;
71395;SDS011;59888;55.814;37.132;2023-04-01T07:04:29;19.77;;;8.45;;
71395;SDS011;59888;55.814;37.132;2023-04-01T07:06:55;19.73;;;8.27;;
71395;SDS011;59888;55.814;37.132;2023-04-01T07:09:25;18.42;;;8.85;;
71395;SDS011;59888;55.814;37.132;2023-04-01T07:12:16;17.27;;;8.05;;
71395;SDS011;59888;55.814;37.132;2023-04-01T07:15:24;20.35;;;8.30;;
71395;SDS011;59888;55.814;37.132;2023-04-01T07:18:10;13.15;;;6.97;;
71395;SDS011;59888;55.814;37.132;2023-04-01T07:20:39;17.60;;;8.20;;
71395;SDS011;59888;55.814;37.132;2023-04-01T07:23:06;17.02;;;8.10;;
71395;SDS011;59888;55.814;37.132;2023-04-01T07:25:58;14.68;;;7.40;;
71395;SDS011;59888;55.814;37.132;2023-04-01T07:28:44;16.35;;;8.07;;
71395;SDS011;59888;55.814;37.132;2023-04-01T07:34:36;17.40;;;7.05;;
71395;SDS011;59888;55.814;37.132;2023-04-01T07:45:43;17.03;;;7.80;;
71395;SDS011;59888;55.814;37.132;2023-04-01T07:48:24;15.13;;;7.30;;
71395;SDS011;59888;55.814;37.132;2023-04-01T07:51:02;17.15;;;7.82;;
71395;SDS011;59888;55.814;37.132;2023-04-01T07:56:45;14.60;;;7.30;;
71395;SDS011;59888;55.814;37.132;2023-04-01T08:02:06;16.17;;;7.82;;
71395;SDS011;59888;55.814;37.132;2023-04-01T08:07:23;17.45;;;7.80;;
71395;SDS011;59888;55.814;37.132;2023-04-01T08:10:23;15.55;;;7.78;;
71395;SDS011;59888;55.814;37.132;2023-04-01T08:13:40;14.35;;;7.38;;
71395;SDS011;59888;55.814;37.132;2023-04-01T08:22:34;16.70;;;7.70;;
71395;SDS011;59888;55.814;37.132;2023-04-01T08:25:04;15.65;;;7.28;;
71395;SDS011;59888;55.814;37.132;2023-04-01T08:27:43;14.48;;;6.93;;
71395;SDS011;59888;55.814;37.132;2023-04-01T08:32:47;14.18;;;6.88;;
71395;SDS011;59888;55.814;37.132;2023-04-01T08:37:55;14.82;;;6.55;;
71395;SDS011;59888;55.814;37.132;2023-04-01T08:57:01;8.90;;;3.60;;
71395;SDS011;59888;55.814;37.132;2023-04-01T09:10:57;8.85;;;4.55;;
71395;SDS011;59888;55.814;37.132;2023-04-01T09:19:28;8.00;;;3.92;;
71395;SDS011;59888;55.814;37.132;2023-04-01T09:24:56;8.18;;;4.10;;
71395;SDS011;59888;55.814;37.132;2023-04-01T09:27:44;12.13;;;4.95;;
71395;SDS011;59888;55.814;37.132;2023-04-01T09:35:48;10.15;;;4.53;;
71395;SDS011;59888;55.814;37.132;2023-04-01T09:38:48;9.43;;;4.50;;
71395;SDS011;59888;55.814;37.132;2023-04-01T09:41:13;8.85;;;4.78;;
71395;SDS011;59888;55.814;37.132;2023-04-01T09:44:25;12.50;;;4.57;;
71395;SDS011;59888;55.814;37.132;2023-04-01T10:13:14;7.50;;;3.03;;
71395;SDS011;59888;55.814;37.132;2023-04-01T10:22:31;9.00;;;2.88;;
71395;SDS011;59888;55.814;37.132;2023-04-01T10:41:06;3.97;;;2.22;;
71395;SDS011;59888;55.814;37.132;2023-04-01T10:44:58;3.58;;;2.20;;
71395;SDS011;59888;55.814;37.132;2023-04-01T11:25:50;5.28;;;3.08;;
71395;SDS011;59888;55.814;37.132;2023-04-01T11:29:08;6.80;;;3.22;;
71395;SDS011;59888;55.814;37.132;2023-04-01T11:34:48;6.57;;;3.30;;
71395;SDS011;59888;55.814;37.132;2023-04-01T11:37:46;8.80;;;3.67;;
71395;SDS011;59888;55.814;37.132;2023-04-01T11:52:55;8.80;;;4.82;;
71395;SDS011;59888;55.814;37.132;2023-04-01T11:55:46;10.50;;;4.68;;
71395;SDS011;59888;55.814;37.132;2023-04-01T12:04:17;10.05;;;3.33;;
71395;SDS011;59888;55.814;37.132;2023-04-01T12:07:19;11.38;;;3.00;;
71395;SDS011;59888;55.814;37.132;2023-04-01T12:18:50;9.07;;;3.00;;
71395;SDS011;59888;55.814;37.132;2023-04-01T12:21:22;6.35;;;3.20;;
71395;SDS011;59888;55.814;37.132;2023-04-01T12:54:20;5.22;;;2.13;;
71395;SDS011;59888;55.814;37.132;2023-04-01T13:02:19;12.15;;;2.85;;
71395;SDS011;59888;55.814;37.132;2023-04-01T13:05:13;5.75;;;2.40;;
71395;SDS011;59888;55.814;37.132;2023-04-01T13:07:46;4.25;;;2.30;;
71395;SDS011;59888;55.814;37.132;2023-04-01T13:13:14;4.53;;;2.20;;
71395;SDS011;59888;55.814;37.132;2023-04-01T13:21:34;6.38;;;3.30;;
71395;SDS011;59888;55.814;37.132;2023-04-01T13:24:29;6.47;;;3.30;;
71395;SDS011;59888;55.814;37.132;2023-04-01T13:27:06;9.00;;;3.03;;
71395;SDS011;59888;55.814;37.132;2023-04-01T13:29:41;7.65;;;2.80;;
71395;SDS011;59888;55.814;37.132;2023-04-01T13:43:14;9.23;;;3.13;;
71395;SDS011;59888;55.814;37.132;2023-04-01T13:56:34;6.65;;;3.17;;
71395;SDS011;59888;55.814;37.132;2023-04-01T14:02:14;6.57;;;3.15;;
71395;SDS011;59888;55.814;37.132;2023-04-01T14:10:31;7.10;;;3.85;;
71395;SDS011;59888;55.814;37.132;2023-04-01T14:37:22;8.13;;;3.83;;
71395;SDS011;59888;55.814;37.132;2023-04-01T14:48:49;6.60;;;3.75;;
71395;SDS011;59888;55.814;37.132;2023-04-01T14:51:35;8.73;;;4.63;;
71395;SDS011;59888;55.814;37.132;2023-04-01T14:56:40;14.75;;;6.38;;
71395;SDS011;59888;55.814;37.132;2023-04-01T15:01:43;8.20;;;5.05;;
71395;SDS011;59888;55.814;37.132;2023-04-01T15:10:02;9.85;;;5.10;;
71395;SDS011;59888;55.814;37.132;2023-04-01T15:18:38;11.27;;;6.22;;
71395;SDS011;59888;55.814;37.132;2023-04-01T15:41:29;17.77;;;8.90;;
71395;SDS011;59888;55.814;37.132;2023-04-01T15:47:00;14.98;;;7.95;;
71395;SDS011;59888;55.814;37.132;2023-04-01T15:55:13;13.88;;;7.25;;
71395;SDS011;59888;55.814;37.132;2023-04-01T16:11:51;16.65;;;7.93;;
71395;SDS011;59888;55.814;37.132;2023-04-01T16:22:20;14.02;;;7.55;;
71395;SDS011;59888;55.814;37.132;2023-04-01T16:30:44;11.55;;;6.50;;
71395;SDS011;59888;55.814;37.132;2023-04-01T16:35:58;14.65;;;7.10;;
71395;SDS011;59888;55.814;37.132;2023-04-01T16:38:52;14.02;;;7.28;;
71395;SDS011;59888;55.814;37.132;2023-04-01T16:42:07;12.38;;;6.63;;
71395;SDS011;59888;55.814;37.132;2023-04-01T16:47:36;12.25;;;6.93;;
71395;SDS011;59888;55.814;37.132;2023-04-01T16:50:13;12.52;;;7.25;;
71395;SDS011;59888;55.814;37.132;2023-04-01T17:03:39;12.70;;;7.00;;
71395;SDS011;59888;55.814;37.132;2023-04-01T17:28:13;11.80;;;6.95;;
71395;SDS011;59888;55.814;37.132;2023-04-01T17:30:58;12.80;;;7.00;;
71395;SDS011;59888;55.814;37.132;2023-04-01T17:33:42;14.10;;;7.10;;
71395;SDS011;59888;55.814;37.132;2023-04-01T17:42:04;15.02;;;6.70;;
71395;SDS011;59888;55.814;37.132;2023-04-01T18:01:06;11.38;;;6.65;;
71395;SDS011;59888;55.814;37.132;2023-04-01T18:03:44;11.05;;;6.93;;
71395;SDS011;59888;55.814;37.132;2023-04-01T18:06:36;12.88;;;7.10;;
71395;SDS011;59888;55.814;37.132;2023-04-01T18:17:23;10.60;;;6.28;;
71395;SDS011;59888;55.814;37.132;2023-04-01T18:20:02;10.20;;;6.00;;
71395;SDS011;59888;55.814;37.132;2023-04-01T18:22:55;11.48;;;6.45;;
71395;SDS011;59888;55.814;37.132;2023-04-01T18:30:49;12.15;;;7.10;;
71395;SDS011;59888;55.814;37.132;2023-04-01T18:33:29;11.63;;;6.82;;
71395;SDS011;59888;55.814;37.132;2023-04-01T18:38:53;11.35;;;6.35;;
71395;SDS011;59888;55.814;37.132;2023-04-01T18:41:28;13.55;;;6.65;;
71395;SDS011;59888;55.814;37.132;2023-04-01T18:46:49;12.70;;;6.80;;
71395;SDS011;59888;55.814;37.132;2023-04-01T18:49:21;12.80;;;7.25;;
71395;SDS011;59888;55.814;37.132;2023-04-01T18:51:57;12.48;;;6.13;;
71395;SDS011;59888;55.814;37.132;2023-04-01T18:54:30;13.48;;;7.15;;
71395;SDS011;59888;55.814;37.132;2023-04-01T18:57:16;14.10;;;7.22;;
71395;SDS011;59888;55.814;37.132;2023-04-01T18:59:57;14.18;;;7.97;;
71395;SDS011;59888;55.814;37.132;2023-04-01T19:02:36;15.63;;;7.28;;
71395;SDS011;59888;55.814;37.132;2023-04-01T19:05:14;13.25;;;7.25;;
71395;SDS011;59888;55.814;37.132;2023-04-01T19:07:49;12.85;;;6.93;;
71395;SDS011;59888;55.814;37.132;2023-04-01T19:18:20;14.93;;;7.13;;
71395;SDS011;59888;55.814;37.132;2023-04-01T19:21:07;14.27;;;7.75;;
71395;SDS011;59888;55.814;37.132;2023-04-01T19:26:26;14.50;;;7.35;;
71395;SDS011;59888;55.814;37.132;2023-04-01T19:35:08;13.52;;;7.50;;
71395;SDS011;59888;55.814;37.132;2023-04-01T19:38:01;15.20;;;8.63;;
71395;SDS011;59888;55.814;37.132;2023-04-01T19:43:25;13.75;;;7.38;;
71395;SDS011;59888;55.814;37.132;2023-04-01T19:46:11;14.27;;;7.55;;
71395;SDS011;59888;55.814;37.132;2023-04-01T19:49:34;16.98;;;8.13;;
71395;SDS011;59888;55.814;37.132;2023-04-01T19:51:42;15.90;;;8.00;;
71395;SDS011;59888;55.814;37.132;2023-04-01T19:56:58;14.52;;;7.82;;
71395;SDS011;59888;55.814;37.132;2023-04-01T20:01:59;14.43;;;7.82;;
71395;SDS011;59888;55.814;37.132;2023-04-01T20:07:20;12.68;;;7.50;;
71395;SDS011;59888;55.814;37.132;2023-04-01T20:10:15;13.98;;;7.82;;
71395;SDS011;59888;55.814;37.132;2023-04-01T20:12:49;14.35;;;8.10;;
71395;SDS011;59888;55.814;37.132;2023-04-01T20:15:22;12.75;;;7.40;;
71395;SDS011;59888;55.814;37.132;2023-04-01T20:17:48;12.57;;;6.90;;
71395;SDS011;59888;55.814;37.132;2023-04-01T20:20:21;19.73;;;8.07;;
71395;SDS011;59888;55.814;37.132;2023-04-01T20:23:04;11.55;;;6.88;;
71395;SDS011;59888;55.814;37.132;2023-04-01T20:25:55;15.25;;;7.75;;
71395;SDS011;59888;55.814;37.132;2023-04-01T20:28:36;15.02;;;8.40;;
71395;SDS011;59888;55.814;37.132;2023-04-01T21:00:24;15.75;;;7.97;;
71395;SDS011;59888;55.814;37.132;2023-04-01T21:06:45;17.10;;;8.20;;
71395;SDS011;59888;55.814;37.132;2023-04-01T21:09:06;14.52;;;8.40;;
71395;SDS011;59888;55.814;37.132;2023-04-01T21:14:32;16.50;;;8.23;;
71395;SDS011;59888;55.814;37.132;2023-04-01T21:17:16;15.88;;;7.60;;
71395;SDS011;59888;55.814;37.132;2023-04-01T21:39:34;15.23;;;7.67;;
71395;SDS011;59888;55.814;37.132;2023-04-01T21:42:10;13.52;;;7.78;;
71395;SDS011;59888;55.814;37.132;2023-04-01T21:55:11;14.85;;;7.10;;
71395;SDS011;59888;55.814;37.132;2023-04-01T22:00:43;15.88;;;6.82;;
71395;SDS011;59888;55.814;37.132;2023-04-01T22:06:34;14.40;;;7.70;;
71395;SDS011;59888;55.814;37.132;2023-04-01T22:11:54;16.58;;;8.68;;
71395;SDS011;59888;55.814;37.132;2023-04-01T22:14:59;15.13;;;7.90;;
71395;SDS011;59888;55.814;37.132;2023-04-01T22:17:45;16.08;;;8.18;;
71395;SDS011;59888;55.814;37.132;2023-04-01T22:23:24;13.23;;;7.65;;
71395;SDS011;59888;55.814;37.132;2023-04-01T22:28:29;14.63;;;7.80;;
71395;SDS011;59888;55.814;37.132;2023-04-01T22:31:05;14.88;;;8.05;;
71395;SDS011;59888;55.814;37.132;2023-04-01T22:33:37;17.85;;;8.48;;
71395;SDS011;59888;55.814;37.132;2023-04-01T22:41:59;16.08;;;8.38;;
71395;SDS011;59888;55.814;37.132;2023-04-01T22:44:42;14.20;;;7.68;;
71395;SDS011;59888;55.814;37.132;2023-04-01T22:47:48;16.45;;;7.90;;
71395;SDS011;59888;55.814;37.132;2023-04-01T22:53:08;15.05;;;8.60;;
71395;SDS011;59888;55.814;37.132;2023-04-01T22:55:47;21.55;;;9.60;;
71395;SDS011;59888;55.814;37.132;2023-04-01T22:58:26;16.45;;;8.90;;
71395;SDS011;59888;55.814;37.132;2023-04-01T23:00:58;19.80;;;9.27;;
71395;SDS011;59888;55.814;37.132;2023-04-01T23:03:29;19.52;;;8.60;;
71395;SDS011;59888;55.814;37.132;2023-04-01T23:05:58;18.48;;;8.63;;
71395;SDS011;59888;55.814;37.132;2023-04-01T23:08:28;16.15;;;8.85;;
71395;SDS011;59888;55.814;37.132;2023-04-01T23:11:06;16.30;;;8.68;;
71395;SDS011;59888;55.814;37.132;2023-04-01T23:13:39;15.60;;;8.57;;
71395;SDS011;59888;55.814;37.132;2023-04-01T23:16:09;15.18;;;8.77;;
71395;SDS011;59888;55.814;37.132;2023-04-01T23:21:30;18.77;;;8.90;;
71395;SDS011;59888;55.814;37.132;2023-04-01T23:27:06;18.27;;;8.93;;
71395;SDS011;59888;55.814;37.132;2023-04-01T23:29:38;17.52;;;9.20;;
71395;SDS011;59888;55.814;37.132;2023-04-01T23:32:15;17.27;;;9.00;;
71395;SDS011;59888;55.814;37.132;2023-04-01T23:34:49;18.17;;;9.27;;
71395;SDS011;59888;55.814;37.132;2023-04-01T23:37:18;19.13;;;9.25;;
71395;SDS011;59888;55.814;37.132;2023-04-01T23:39:45;19.83;;;9.32;;
71395;SDS011;59888;55.814;37.132;2023-04-01T23:42:21;17.65;;;9.55;;
71395;SDS011;59888;55.814;37.132;2023-04-01T23:44:58;19.30;;;9.75;;
71395;SDS011;59888;55.814;37.132;2023-04-01T23:47:34;19.38;;;9.98;;
71395;SDS011;59888;55.814;37.132;2023-04-01T23:50:03;20.45;;;10.55;;
71395;SDS011;59888;55.814;37.132;2023-04-01T23:52:40;18.98;;;10.63;;
71395;SDS011;59888;55.814;37.132;2023-04-01T23:58:25;23.63;;;10.77;;
